Terminal Aerodrome Forecast
Issued by NWS Tuscon, AZ

Home | Current Version | Previous Version | Text Only | Print | Product List | Glossary On
Versions: 1 2 3 4 5 6 7 8 9 10 11 12 13 14 15 16
000
FTUS45 KTWC 032329
TAFDUG
TAF
KDUG 032329Z 0400/0424 17010KT P6SM VCTS SCT060CB BKN110
      TEMPO 0400/0403 VRB15G30KT -TSRA BKN050CB
     FM040400 13004KT P6SM VCSH SCT060 BKN120
     FM040800 VRB03KT P6SM SCT070 BKN130
     FM041800 22008KT P6SM SCT080 BKN150=

USA.gov is the U.S. government's official web portal to all federal, state and local government web resources and services.